Time;durP1;ratioP1;P1;durP2;ratioP2;P2;SDS_P1;SDS_P2;PMS_P1;PMS_P2;Temp;Humidity;BMP_temperature;BMP_pressure;BME280_temperature;BME280_humidity;BME280_pressure;Samples;Min_cycle;Max_cycle;Signal;HPM_P1;HPM_P2
2022/06/29 00:00:22;;;;;;;33.78;7.85;;;;;;;;;;5001014;28;20034;-60
2022/06/29 00:02:50;;;;;;;38.20;8.32;;;;;;;;;;4998110;28;20400;-61
2022/06/29 00:05:19;;;;;;;39.05;7.63;;;;;;;;;;4990645;28;20034;-59
2022/06/29 00:07:46;;;;;;;35.50;7.75;;;;;;;;;;4993877;28;20038;-61
2022/06/29 00:10:14;;;;;;;39.83;8.00;;;;;;;;;;4991455;28;20440;-59
2022/06/29 00:12:42;;;;;;;44.38;7.20;;;;;;;;;;4990447;28;20026;-59
2022/06/29 00:15:10;;;;;;;31.52;6.93;;;;;;;;;;4991511;28;20117;-60
2022/06/29 00:17:37;;;;;;;37.10;7.50;;;;;;;;;;4991232;28;20035;-61
2022/06/29 00:20:05;;;;;;;37.85;7.70;;;;;;;;;;4990627;28;20041;-61
2022/06/29 00:22:32;;;;;;;40.22;7.95;;;;;;;;;;4990716;28;20089;-60
2022/06/29 00:24:59;;;;;;;32.63;7.65;;;;;;;;;;5001795;28;20678;-61
2022/06/29 00:27:27;;;;;;;62.90;9.10;;;;;;;;;;5007482;28;20415;-61
2022/06/29 00:29:54;;;;;;;51.88;9.63;;;;;;;;;;5009007;28;20034;-61
2022/06/29 00:32:21;;;;;;;48.70;8.43;;;;;;;;;;5008208;28;20137;-62
2022/06/29 00:34:48;;;;;;;51.65;8.75;;;;;;;;;;5010184;28;20037;-60
2022/06/29 00:37:15;;;;;;;40.33;8.52;;;;;;;;;;5010735;28;20117;-60
2022/06/29 00:39:42;;;;;;;40.55;7.60;;;;;;;;;;5010847;28;20105;-61
2022/06/29 00:42:10;;;;;;;35.25;8.68;;;;;;;;;;5012334;28;20078;-61
2022/06/29 00:44:37;;;;;;;33.28;8.48;;;;;;;;;;4993022;28;20106;-60
2022/06/29 00:47:05;;;;;;;40.53;8.60;;;;;;;;;;4991292;28;20049;-62
2022/06/29 00:49:34;;;;;;;40.55;9.45;;;;;;;;;;4990434;28;20030;-61
2022/06/29 00:52:06;;;;;;;37.00;9.18;;;;;;;;;;4993954;28;20477;-60
2022/06/29 00:54:37;;;;;;;38.03;9.38;;;;;;;;;;5013147;28;20034;-62
2022/06/29 00:57:07;;;;;;;31.67;7.78;;;;;;;;;;5012150;28;20107;-61
2022/06/29 00:59:38;;;;;;;34.88;9.90;;;;;;;;;;5014557;28;20036;-62
2022/06/29 01:02:06;;;;;;;29.38;7.65;;;;;;;;;;5014359;28;20531;-60
2022/06/29 01:04:33;;;;;;;32.15;7.57;;;;;;;;;;5014976;28;20037;-60
2022/06/29 01:07:00;;;;;;;41.30;8.57;;;;;;;;;;5014472;28;20037;-62
2022/06/29 01:09:28;;;;;;;29.17;6.97;;;;;;;;;;5004387;28;20064;-60
2022/06/29 01:11:55;;;;;;;31.38;8.38;;;;;;;;;;5013144;28;20034;-62
2022/06/29 01:14:22;;;;;;;32.92;7.85;;;;;;;;;;5014647;28;20907;-60
2022/06/29 01:16:50;;;;;;;34.72;7.57;;;;;;;;;;5014383;28;20037;-61
2022/06/29 01:19:17;;;;;;;30.23;7.43;;;;;;;;;;5013262;28;20022;-60
2022/06/29 01:21:46;;;;;;;30.45;7.30;;;;;;;;;;5014529;28;20038;-60
2022/06/29 01:24:13;;;;;;;28.83;7.35;;;;;;;;;;5012897;28;20088;-61
2022/06/29 01:26:40;;;;;;;46.65;12.25;;;;;;;;;;5013407;28;20030;-62
2022/06/29 01:29:08;;;;;;;72.65;21.00;;;;;;;;;;5014719;28;20026;-61
2022/06/29 01:31:34;;;;;;;109.10;28.98;;;;;;;;;;5013938;28;20030;-61
2022/06/29 01:34:02;;;;;;;134.10;35.92;;;;;;;;;;5014378;28;20030;-61
2022/06/29 01:36:49;;;;;;;146.32;39.45;;;;;;;;;;5013810;28;20515;-60
2022/06/29 01:39:16;;;;;;;181.48;50.97;;;;;;;;;;5013611;28;20046;-62
2022/06/29 01:41:46;;;;;;;204.55;54.67;;;;;;;;;;5014323;28;20132;-61
2022/06/29 01:44:13;;;;;;;203.23;61.42;;;;;;;;;;5014605;28;20479;-60
2022/06/29 01:46:40;;;;;;;197.38;62.25;;;;;;;;;;5013678;28;20059;-62
2022/06/29 01:49:07;;;;;;;201.45;60.72;;;;;;;;;;5013402;28;20084;-62
2022/06/29 01:51:35;;;;;;;215.93;63.55;;;;;;;;;;5014090;28;20029;-61
2022/06/29 01:54:03;;;;;;;185.90;58.42;;;;;;;;;;5014126;28;20029;-60
2022/06/29 01:56:30;;;;;;;195.45;57.03;;;;;;;;;;5013424;28;20480;-60
2022/06/29 01:58:57;;;;;;;183.35;57.95;;;;;;;;;;5012493;28;20025;-61
2022/06/29 02:01:25;;;;;;;177.73;54.08;;;;;;;;;;5006608;28;20457;-60
2022/06/29 02:03:53;;;;;;;167.00;54.55;;;;;;;;;;5003285;28;20054;-60
2022/06/29 02:06:21;;;;;;;164.38;53.67;;;;;;;;;;4996647;28;20444;-60
2022/06/29 02:08:48;;;;;;;162.55;51.15;;;;;;;;;;4994010;28;20044;-60
2022/06/29 02:11:15;;;;;;;159.05;50.05;;;;;;;;;;4993689;28;20026;-60
2022/06/29 02:13:42;;;;;;;162.07;49.60;;;;;;;;;;5011279;28;20029;-60
2022/06/29 02:16:09;;;;;;;136.25;44.78;;;;;;;;;;5013080;28;20033;-60
2022/06/29 02:18:36;;;;;;;144.43;47.40;;;;;;;;;;5013386;28;20033;-60
2022/06/29 02:21:03;;;;;;;134.43;42.97;;;;;;;;;;5013538;28;20050;-61
2022/06/29 02:23:30;;;;;;;135.85;42.60;;;;;;;;;;5012188;28;20044;-61
2022/06/29 02:25:58;;;;;;;131.75;42.10;;;;;;;;;;5011981;28;20033;-60
2022/06/29 02:28:25;;;;;;;121.28;39.55;;;;;;;;;;5012854;28;20029;-61
2022/06/29 02:36:22;;;;;;;103.32;36.17;;;;;;;;;;4993731;28;20045;-60
2022/06/29 02:38:52;;;;;;;98.45;33.58;;;;;;;;;;4997604;28;20124;-60
2022/06/29 02:41:19;;;;;;;95.18;33.40;;;;;;;;;;5012428;28;20104;-60
2022/06/29 02:43:46;;;;;;;101.00;34.65;;;;;;;;;;5012432;28;20034;-60
2022/06/29 02:46:13;;;;;;;90.18;32.20;;;;;;;;;;5013324;28;20451;-60
2022/06/29 02:48:40;;;;;;;93.90;31.33;;;;;;;;;;5013511;28;20052;-60
2022/06/29 02:51:08;;;;;;;95.57;31.58;;;;;;;;;;5014022;28;20024;-60
2022/06/29 02:53:35;;;;;;;85.80;30.25;;;;;;;;;;5013317;28;20092;-60
2022/06/29 02:56:02;;;;;;;89.50;30.95;;;;;;;;;;5014007;28;20113;-61
2022/06/29 02:58:29;;;;;;;82.60;28.63;;;;;;;;;;5013460;28;20029;-60
2022/06/29 03:00:56;;;;;;;84.50;28.60;;;;;;;;;;5013945;28;20034;-60
2022/06/29 03:03:23;;;;;;;77.15;27.85;;;;;;;;;;5013018;28;20026;-60
2022/06/29 03:05:50;;;;;;;81.13;28.05;;;;;;;;;;5013877;28;20029;-60
2022/06/29 03:08:17;;;;;;;71.88;26.40;;;;;;;;;;5012892;28;20034;-61
2022/06/29 03:10:44;;;;;;;74.40;26.55;;;;;;;;;;5012235;28;20462;-61
2022/06/29 03:13:11;;;;;;;70.15;24.35;;;;;;;;;;5012822;28;20030;-61
2022/06/29 03:15:38;;;;;;;76.15;26.10;;;;;;;;;;5013385;28;20061;-61
2022/06/29 03:18:06;;;;;;;72.78;24.33;;;;;;;;;;5012981;28;20029;-60
2022/06/29 03:20:33;;;;;;;69.45;24.25;;;;;;;;;;5013559;28;20034;-60
2022/06/29 03:23:00;;;;;;;68.35;24.05;;;;;;;;;;5013540;28;20692;-60
2022/06/29 03:25:27;;;;;;;62.80;22.85;;;;;;;;;;5012640;28;20507;-60
2022/06/29 03:27:54;;;;;;;65.38;22.75;;;;;;;;;;5013407;28;20034;-61
2022/06/29 03:30:21;;;;;;;54.40;21.48;;;;;;;;;;5012831;28;20446;-61
2022/06/29 03:32:48;;;;;;;57.85;21.20;;;;;;;;;;5013288;28;20022;-61
2022/06/29 03:35:15;;;;;;;58.88;21.48;;;;;;;;;;5012592;28;20032;-60
2022/06/29 03:37:42;;;;;;;55.75;20.38;;;;;;;;;;5013206;28;20061;-60
2022/06/29 03:40:09;;;;;;;58.67;20.58;;;;;;;;;;5012475;28;20065;-60
2022/06/29 03:42:36;;;;;;;51.22;19.50;;;;;;;;;;5013141;28;20046;-61
2022/06/29 03:45:03;;;;;;;55.75;19.67;;;;;;;;;;5013204;28;20029;-60
2022/06/29 03:47:30;;;;;;;48.72;18.85;;;;;;;;;;4995071;28;20408;-60
2022/06/29 03:49:57;;;;;;;41.45;17.92;;;;;;;;;;5012911;28;20030;-60
2022/06/29 03:52:24;;;;;;;45.80;17.05;;;;;;;;;;5012614;28;20038;-60
2022/06/29 03:54:51;;;;;;;47.05;16.92;;;;;;;;;;5013253;28;20057;-60
2022/06/29 03:57:18;;;;;;;49.25;17.50;;;;;;;;;;5012100;28;20034;-60
2022/06/29 03:59:45;;;;;;;41.58;16.40;;;;;;;;;;5013279;28;20039;-60
2022/06/29 04:02:12;;;;;;;49.70;17.02;;;;;;;;;;5012654;28;20022;-60
2022/06/29 04:04:39;;;;;;;48.00;16.73;;;;;;;;;;5012221;28;20081;-60
2022/06/29 04:07:06;;;;;;;48.10;16.55;;;;;;;;;;5012380;28;20061;-60
2022/06/29 04:09:33;;;;;;;43.35;16.02;;;;;;;;;;5012332;28;20030;-60
2022/06/29 04:12:00;;;;;;;40.97;15.80;;;;;;;;;;5011971;28;20369;-61
2022/06/29 04:14:28;;;;;;;42.53;15.48;;;;;;;;;;5012537;28;20472;-61
2022/06/29 04:16:55;;;;;;;41.60;15.07;;;;;;;;;;5011938;28;20040;-60
2022/06/29 04:19:22;;;;;;;39.67;14.40;;;;;;;;;;5012246;28;20032;-60
2022/06/29 04:21:50;;;;;;;37.80;14.50;;;;;;;;;;5012416;28;20022;-60
2022/06/29 04:24:17;;;;;;;34.38;13.70;;;;;;;;;;5012244;28;20415;-60
2022/06/29 04:26:45;;;;;;;33.50;13.20;;;;;;;;;;5011267;28;20022;-61
2022/06/29 04:29:12;;;;;;;32.15;13.88;;;;;;;;;;5012288;28;20088;-60
2022/06/29 04:31:39;;;;;;;37.55;14.25;;;;;;;;;;5012438;28;20033;-61
2022/06/29 04:34:06;;;;;;;33.38;12.77;;;;;;;;;;5011683;28;20030;-60
2022/06/29 04:36:33;;;;;;;33.33;12.50;;;;;;;;;;5012238;28;20045;-61
2022/06/29 04:39:00;;;;;;;31.52;12.18;;;;;;;;;;5011664;28;20046;-60
2022/06/29 04:41:27;;;;;;;29.05;11.75;;;;;;;;;;5011863;28;20022;-60
2022/06/29 04:43:55;;;;;;;28.77;11.65;;;;;;;;;;5011847;28;20103;-60
2022/06/29 04:46:24;;;;;;;29.17;11.40;;;;;;;;;;5012066;28;20036;-60
2022/06/29 04:48:56;;;;;;;27.52;11.10;;;;;;;;;;5011417;28;20069;-60
2022/06/29 04:51:24;;;;;;;32.42;11.60;;;;;;;;;;5011554;28;20446;-60
2022/06/29 04:53:54;;;;;;;21.02;10.05;;;;;;;;;;5012146;28;20049;-61
2022/06/29 04:56:22;;;;;;;27.65;9.85;;;;;;;;;;5011974;28;20034;-60
2022/06/29 04:58:50;;;;;;;28.88;10.38;;;;;;;;;;5011200;28;20038;-60
2022/06/29 05:01:21;;;;;;;23.77;9.48;;;;;;;;;;5011922;28;20491;-60
2022/06/29 05:03:48;;;;;;;26.58;9.57;;;;;;;;;;5011524;28;20450;-61
2022/06/29 05:06:15;;;;;;;25.80;9.77;;;;;;;;;;5011799;28;20033;-60
2022/06/29 05:08:42;;;;;;;23.15;9.50;;;;;;;;;;5011683;28;20038;-61
2022/06/29 05:11:09;;;;;;;23.42;8.35;;;;;;;;;;5012148;28;20049;-60
2022/06/29 05:13:36;;;;;;;19.17;8.55;;;;;;;;;;5011279;28;20042;-60
2022/06/29 05:16:03;;;;;;;21.92;8.23;;;;;;;;;;5011987;28;20038;-60
2022/06/29 05:18:32;;;;;;;20.73;8.48;;;;;;;;;;5011245;28;20128;-60
2022/06/29 05:20:59;;;;;;;18.95;7.80;;;;;;;;;;5010743;28;20056;-60
2022/06/29 05:23:27;;;;;;;17.73;7.40;;;;;;;;;;5012004;28;20034;-60
2022/06/29 05:25:54;;;;;;;17.80;7.20;;;;;;;;;;5011757;28;20042;-60
2022/06/29 05:28:21;;;;;;;18.35;7.55;;;;;;;;;;5011119;28;20030;-60
2022/06/29 05:30:49;;;;;;;15.32;6.70;;;;;;;;;;5012048;28;20496;-60
2022/06/29 05:33:16;;;;;;;14.98;6.82;;;;;;;;;;5011660;28;20038;-60
2022/06/29 05:35:43;;;;;;;17.00;6.82;;;;;;;;;;5011194;28;20153;-60
2022/06/29 05:38:10;;;;;;;15.57;6.85;;;;;;;;;;5014215;28;20060;-60
2022/06/29 05:40:37;;;;;;;14.32;6.10;;;;;;;;;;5014679;28;20030;-60
2022/06/29 05:43:04;;;;;;;15.23;6.50;;;;;;;;;;5015585;28;20037;-60
2022/06/29 05:45:31;;;;;;;16.30;6.45;;;;;;;;;;5015211;28;20069;-60
2022/06/29 05:47:58;;;;;;;13.55;6.13;;;;;;;;;;5015102;28;20029;-61
2022/06/29 05:50:25;;;;;;;14.85;5.50;;;;;;;;;;5015683;28;20388;-60
2022/06/29 05:52:52;;;;;;;14.60;6.10;;;;;;;;;;5014536;28;20092;-60
2022/06/29 05:55:19;;;;;;;15.13;5.95;;;;;;;;;;5015309;28;20022;-60
2022/06/29 05:57:46;;;;;;;10.68;4.97;;;;;;;;;;5015168;28;20117;-60
2022/06/29 06:00:13;;;;;;;13.27;5.22;;;;;;;;;;5014617;28;20499;-60
2022/06/29 06:02:41;;;;;;;11.85;5.10;;;;;;;;;;5014604;28;20419;-60
2022/06/29 06:05:08;;;;;;;12.27;5.28;;;;;;;;;;5014257;28;20025;-60
2022/06/29 06:07:35;;;;;;;11.43;4.80;;;;;;;;;;5014858;28;20033;-60
2022/06/29 06:10:03;;;;;;;11.85;5.13;;;;;;;;;;5014388;28;20451;-60
2022/06/29 06:12:30;;;;;;;10.35;4.55;;;;;;;;;;5014769;28;20369;-60
2022/06/29 06:14:59;;;;;;;11.15;4.82;;;;;;;;;;5014210;28;20548;-61
2022/06/29 06:17:26;;;;;;;9.85;4.43;;;;;;;;;;5014411;28;20061;-60
2022/06/29 06:19:54;;;;;;;10.60;3.97;;;;;;;;;;5012855;28;20396;-60
2022/06/29 06:22:21;;;;;;;7.55;4.05;;;;;;;;;;5014424;28;20036;-60
2022/06/29 06:24:48;;;;;;;11.50;3.65;;;;;;;;;;5013904;28;20033;-61
2022/06/29 06:27:15;;;;;;;8.32;3.83;;;;;;;;;;5014414;28;20056;-60
2022/06/29 06:29:45;;;;;;;7.97;4.03;;;;;;;;;;5014310;28;20385;-61
2022/06/29 06:32:12;;;;;;;12.30;4.60;;;;;;;;;;5178978;22;20041;-60
2022/06/29 06:34:39;;;;;;;8.88;3.92;;;;;;;;;;5034335;28;20056;-61
2022/06/29 06:37:06;;;;;;;7.22;3.80;;;;;;;;;;5034312;28;20040;-61
2022/06/29 06:39:33;;;;;;;6.88;3.55;;;;;;;;;;5033828;28;20086;-61
2022/06/29 06:42:02;;;;;;;8.82;4.18;;;;;;;;;;5016123;28;20044;-61
2022/06/29 06:44:29;;;;;;;7.93;3.30;;;;;;;;;;5033257;28;20045;-61
2022/06/29 06:46:56;;;;;;;9.00;3.33;;;;;;;;;;5034349;28;20053;-60
2022/06/29 06:49:24;;;;;;;7.45;3.30;;;;;;;;;;5032677;28;20028;-60
2022/06/29 06:51:51;;;;;;;7.82;3.15;;;;;;;;;;5033719;28;20048;-60
2022/06/29 06:54:18;;;;;;;7.82;3.70;;;;;;;;;;5033113;28;20030;-60
2022/06/29 06:56:45;;;;;;;6.65;2.85;;;;;;;;;;5033377;28;20478;-60
2022/06/29 06:59:12;;;;;;;8.68;3.38;;;;;;;;;;5033657;28;20040;-60
2022/06/29 07:01:39;;;;;;;8.07;3.22;;;;;;;;;;5033524;28;20487;-61
2022/06/29 07:04:06;;;;;;;8.80;3.13;;;;;;;;;;5033059;28;20040;-61
2022/06/29 07:06:33;;;;;;;6.13;2.90;;;;;;;;;;5022956;28;20531;-61
2022/06/29 07:09:00;;;;;;;7.05;3.20;;;;;;;;;;5013886;28;20108;-61
2022/06/29 07:11:27;;;;;;;7.80;3.25;;;;;;;;;;5013949;28;20107;-61
2022/06/29 07:13:54;;;;;;;6.22;2.53;;;;;;;;;;5013123;28;20085;-61
2022/06/29 07:16:21;;;;;;;7.03;2.90;;;;;;;;;;5013902;28;20387;-60
2022/06/29 07:18:48;;;;;;;5.30;2.58;;;;;;;;;;5013021;28;20025;-60
2022/06/29 07:21:16;;;;;;;5.25;2.88;;;;;;;;;;5012368;28;20037;-60
2022/06/29 07:23:43;;;;;;;5.25;2.70;;;;;;;;;;5013320;28;20369;-60
2022/06/29 07:26:10;;;;;;;5.88;2.90;;;;;;;;;;5013298;28;20050;-60
2022/06/29 07:28:39;;;;;;;7.50;2.63;;;;;;;;;;5013266;28;20030;-61
2022/06/29 07:31:07;;;;;;;6.32;2.83;;;;;;;;;;5013182;28;20128;-60
2022/06/29 07:33:33;;;;;;;6.78;3.03;;;;;;;;;;5012538;28;20057;-61
2022/06/29 07:36:01;;;;;;;6.15;3.00;;;;;;;;;;5013370;28;20460;-61
2022/06/29 07:38:28;;;;;;;4.78;2.55;;;;;;;;;;5012751;28;20038;-61
2022/06/29 07:40:54;;;;;;;5.90;2.28;;;;;;;;;;5012950;28;20041;-61
2022/06/29 07:43:21;;;;;;;5.53;2.55;;;;;;;;;;5012793;28;20034;-61
2022/06/29 07:45:48;;;;;;;6.13;2.40;;;;;;;;;;5013151;28;20091;-61
2022/06/29 07:48:15;;;;;;;4.20;2.38;;;;;;;;;;5012711;28;20046;-61
2022/06/29 07:50:42;;;;;;;4.55;2.13;;;;;;;;;;5013184;28;20038;-60
2022/06/29 07:53:09;;;;;;;5.15;2.28;;;;;;;;;;5012688;28;20080;-60
2022/06/29 07:55:36;;;;;;;4.88;2.35;;;;;;;;;;5012840;28;20030;-60
2022/06/29 07:58:03;;;;;;;4.72;2.55;;;;;;;;;;5012436;28;20061;-60
2022/06/29 08:00:30;;;;;;;6.57;2.45;;;;;;;;;;5012901;28;20038;-60
2022/06/29 08:02:57;;;;;;;6.63;2.40;;;;;;;;;;5012601;28;20069;-60
2022/06/29 08:05:24;;;;;;;5.93;2.60;;;;;;;;;;5012642;28;20026;-61
2022/06/29 08:07:51;;;;;;;5.07;2.58;;;;;;;;;;5012664;28;20061;-61
2022/06/29 08:10:19;;;;;;;4.47;1.95;;;;;;;;;;5012716;28;20129;-61
2022/06/29 08:12:45;;;;;;;3.53;1.83;;;;;;;;;;5012197;28;20103;-61
2022/06/29 08:15:12;;;;;;;4.97;2.28;;;;;;;;;;5012710;28;20036;-61
2022/06/29 08:17:39;;;;;;;6.88;2.10;;;;;;;;;;5011902;28;20044;-60
2022/06/29 08:20:07;;;;;;;4.55;2.10;;;;;;;;;;5012827;28;20121;-60
2022/06/29 08:22:34;;;;;;;4.63;2.15;;;;;;;;;;5011920;28;20033;-60
2022/06/29 08:25:01;;;;;;;3.40;2.05;;;;;;;;;;5011301;28;20084;-60
2022/06/29 08:27:28;;;;;;;4.80;2.17;;;;;;;;;;5012104;28;20383;-60
2022/06/29 08:29:55;;;;;;;6.82;2.28;;;;;;;;;;5012756;28;20022;-60
2022/06/29 08:32:22;;;;;;;4.22;2.10;;;;;;;;;;5011479;28;20042;-60
2022/06/29 08:34:49;;;;;;;3.22;2.20;;;;;;;;;;5011833;28;20793;-61
2022/06/29 08:37:16;;;;;;;5.70;1.90;;;;;;;;;;5011138;28;20037;-61
2022/06/29 08:39:43;;;;;;;4.22;1.90;;;;;;;;;;5011625;28;20065;-61
2022/06/29 08:42:11;;;;;;;5.60;2.30;;;;;;;;;;5012296;28;20025;-61
2022/06/29 08:44:39;;;;;;;3.10;1.92;;;;;;;;;;5011859;28;20029;-61
2022/06/29 08:47:07;;;;;;;3.40;1.88;;;;;;;;;;5012601;28;20026;-61
2022/06/29 08:49:39;;;;;;;3.83;1.90;;;;;;;;;;5011821;28;20117;-61
2022/06/29 08:52:07;;;;;;;2.63;1.77;;;;;;;;;;5011980;28;20038;-61
2022/06/29 08:54:38;;;;;;;3.47;1.85;;;;;;;;;;5012266;28;20050;-61
2022/06/29 08:57:05;;;;;;;2.58;1.48;;;;;;;;;;5011749;28;20034;-60
2022/06/29 08:59:37;;;;;;;3.33;1.55;;;;;;;;;;5011691;28;20392;-60
2022/06/29 09:02:04;;;;;;;4.53;2.20;;;;;;;;;;5011775;28;20054;-61
2022/06/29 09:04:31;;;;;;;4.78;2.03;;;;;;;;;;5012028;28;20518;-61
2022/06/29 09:06:58;;;;;;;4.97;1.70;;;;;;;;;;5012362;28;20104;-61
2022/06/29 09:09:26;;;;;;;3.72;1.80;;;;;;;;;;5011434;28;20101;-61
2022/06/29 09:11:54;;;;;;;3.35;1.58;;;;;;;;;;5013365;28;20088;-61
2022/06/29 09:14:22;;;;;;;3.45;1.63;;;;;;;;;;5015694;28;20034;-60
2022/06/29 09:16:52;;;;;;;2.30;1.27;;;;;;;;;;5015913;28;20029;-60
2022/06/29 09:19:20;;;;;;;4.90;1.70;;;;;;;;;;5016252;28;20022;-61
2022/06/29 09:21:48;;;;;;;3.42;1.50;;;;;;;;;;5015223;28;20048;-60
2022/06/29 09:24:19;;;;;;;3.08;1.65;;;;;;;;;;5015930;28;20030;-60
2022/06/29 09:26:59;;;;;;;4.25;1.52;;;;;;;;;;5015294;28;20034;-60
2022/06/29 09:29:30;;;;;;;3.75;1.88;;;;;;;;;;5015739;28;20033;-60
2022/06/29 09:32:06;;;;;;;3.67;1.67;;;;;;;;;;5015438;28;20033;-60
2022/06/29 09:34:44;;;;;;;2.60;1.52;;;;;;;;;;5014895;28;20129;-63
2022/06/29 09:37:18;;;;;;;3.15;1.50;;;;;;;;;;5014453;28;20022;-63
2022/06/29 09:39:47;;;;;;;4.78;1.63;;;;;;;;;;5015341;28;20038;-62
2022/06/29 09:42:15;;;;;;;3.60;1.20;;;;;;;;;;5014799;28;20042;-62
2022/06/29 09:44:43;;;;;;;2.97;1.40;;;;;;;;;;5015580;28;20084;-64
2022/06/29 09:47:17;;;;;;;2.30;1.50;;;;;;;;;;5013011;28;20041;-63
2022/06/29 09:49:45;;;;;;;3.90;1.52;;;;;;;;;;5015500;28;20038;-62
2022/06/29 09:52:13;;;;;;;2.85;1.38;;;;;;;;;;5015330;28;20030;-62
2022/06/29 09:54:41;;;;;;;3.83;1.45;;;;;;;;;;5015139;28;20048;-62
2022/06/29 09:57:09;;;;;;;3.20;1.42;;;;;;;;;;5015300;28;20037;-62
2022/06/29 10:02:40;;;;;;;2.67;1.58;;;;;;;;;;5014417;28;20136;-62
2022/06/29 10:05:08;;;;;;;3.28;1.50;;;;;;;;;;5014654;28;20057;-62
2022/06/29 10:07:37;;;;;;;4.05;1.50;;;;;;;;;;5023456;28;20034;-63
2022/06/29 10:10:05;;;;;;;3.78;1.40;;;;;;;;;;5028116;28;20029;-62
2022/06/29 10:15:32;;;;;;;2.45;1.35;;;;;;;;;;5027047;28;20040;-62
2022/06/29 10:18:08;;;;;;;2.55;1.35;;;;;;;;;;5026793;28;20034;-64
2022/06/29 10:20:48;;;;;;;3.58;1.33;;;;;;;;;;5028894;28;20037;-62
2022/06/29 10:23:33;;;;;;;4.10;1.30;;;;;;;;;;5028263;28;20049;-63
2022/06/29 10:26:01;;;;;;;3.25;1.58;;;;;;;;;;5034040;28;20394;-64
2022/06/29 10:28:28;;;;;;;3.28;1.40;;;;;;;;;;5030634;28;20112;-62
2022/06/29 10:30:55;;;;;;;6.18;1.38;;;;;;;;;;5026067;28;20499;-63
2022/06/29 10:33:32;;;;;;;8.60;1.40;;;;;;;;;;5010838;28;20041;-65
2022/06/29 10:36:07;;;;;;;6.78;1.67;;;;;;;;;;5013502;28;20037;-63
2022/06/29 10:38:46;;;;;;;9.80;1.42;;;;;;;;;;5013090;28;20074;-63
2022/06/29 10:43:07;;;;;;;5.97;1.40;;;;;;;;;;5013829;28;20061;-62
2022/06/29 10:44:00;;;;;;;4.53;1.23;;;;;;;;;;5016394;28;20083;-63
2022/06/29 10:46:27;;;;;;;7.13;1.85;;;;;;;;;;5033854;28;20034;-65
2022/06/29 10:49:12;;;;;;;4.82;1.45;;;;;;;;;;5032408;28;20025;-63
2022/06/29 10:51:39;;;;;;;5.72;1.50;;;;;;;;;;5033013;28;20449;-64
2022/06/29 10:54:21;;;;;;;3.85;1.13;;;;;;;;;;5033107;28;20037;-62
2022/06/29 10:56:48;;;;;;;5.25;1.42;;;;;;;;;;5033277;28;20095;-62
2022/06/29 10:59:33;;;;;;;9.10;1.70;;;;;;;;;;5032162;28;20048;-62
2022/06/29 11:02:14;;;;;;;6.18;1.50;;;;;;;;;;5033130;28;20037;-63
2022/06/29 11:04:41;;;;;;;8.60;1.55;;;;;;;;;;5032924;28;20057;-62
2022/06/29 11:12:49;;;;;;;5.32;1.23;;;;;;;;;;5032927;28;20427;-66
2022/06/29 11:15:42;;;;;;;6.70;1.35;;;;;;;;;;5033001;28;20037;-67
2022/06/29 11:18:14;;;;;;;4.80;1.45;;;;;;;;;;5032820;28;20514;-63
2022/06/29 11:20:41;;;;;;;7.38;1.60;;;;;;;;;;5032216;28;20475;-63
2022/06/29 11:23:15;;;;;;;6.75;1.10;;;;;;;;;;5032275;28;20065;-66
2022/06/29 11:25:46;;;;;;;5.88;1.50;;;;;;;;;;5032852;28;20026;-65
2022/06/29 11:28:25;;;;;;;4.65;1.67;;;;;;;;;;5032445;28;20116;-65
2022/06/29 11:31:08;;;;;;;6.22;1.55;;;;;;;;;;5030175;28;20395;-62
2022/06/29 11:33:36;;;;;;;8.07;1.23;;;;;;;;;;5032408;28;20050;-63
2022/06/29 11:36:27;;;;;;;6.47;1.30;;;;;;;;;;5032020;28;20033;-61
2022/06/29 11:38:55;;;;;;;3.50;1.30;;;;;;;;;;5022604;28;20452;-62
2022/06/29 11:41:26;;;;;;;5.07;1.45;;;;;;;;;;5031572;28;20025;-62
2022/06/29 11:44:00;;;;;;;4.70;1.48;;;;;;;;;;5032364;28;20113;-61
2022/06/29 11:46:28;;;;;;;7.78;1.83;;;;;;;;;;5032271;28;20029;-61
2022/06/29 11:51:53;;;;;;;4.25;1.27;;;;;;;;;;5031670;28;20091;-62
2022/06/29 11:54:34;;;;;;;8.50;1.63;;;;;;;;;;5032376;28;20091;-63
2022/06/29 11:57:00;;;;;;;2.97;1.15;;;;;;;;;;5031668;28;20116;-63
2022/06/29 11:59:27;;;;;;;3.13;1.25;;;;;;;;;;5031585;28;20027;-64
2022/06/29 12:01:54;;;;;;;4.18;1.45;;;;;;;;;;5031296;28;20088;-64
2022/06/29 12:04:31;;;;;;;4.82;1.75;;;;;;;;;;5031793;28;20109;-64
2022/06/29 12:07:05;;;;;;;4.78;1.52;;;;;;;;;;5031516;28;20110;-63
2022/06/29 12:09:32;;;;;;;7.28;1.60;;;;;;;;;;5031886;28;20037;-65
2022/06/29 12:11:59;;;;;;;10.60;1.65;;;;;;;;;;5031255;28;20028;-64
2022/06/29 12:14:26;;;;;;;7.82;1.48;;;;;;;;;;5031378;28;20473;-61
2022/06/29 12:16:56;;;;;;;10.05;1.83;;;;;;;;;;5031134;28;20050;-62
2022/06/29 12:19:23;;;;;;;7.97;1.60;;;;;;;;;;5032060;28;20053;-64
2022/06/29 12:21:50;;;;;;;5.10;1.48;;;;;;;;;;5030931;28;20096;-63
2022/06/29 12:24:17;;;;;;;6.10;2.20;;;;;;;;;;5030387;28;20091;-61
2022/06/29 12:26:45;;;;;;;9.38;2.10;;;;;;;;;;5021739;28;20033;-63
2022/06/29 12:29:13;;;;;;;5.43;1.55;;;;;;;;;;5025151;28;20034;-62
2022/06/29 12:31:44;;;;;;;7.82;1.90;;;;;;;;;;5030528;28;20084;-61
2022/06/29 12:34:12;;;;;;;6.88;2.10;;;;;;;;;;5018203;28;20128;-63
2022/06/29 12:36:38;;;;;;;9.45;2.28;;;;;;;;;;5011840;28;20107;-62
2022/06/29 12:39:06;;;;;;;11.90;2.20;;;;;;;;;;5011394;28;20048;-62
2022/06/29 12:41:33;;;;;;;17.77;2.55;;;;;;;;;;5011131;28;20022;-62
2022/06/29 12:44:02;;;;;;;10.50;2.20;;;;;;;;;;5011815;28;20033;-62
2022/06/29 12:46:32;;;;;;;9.77;2.10;;;;;;;;;;5008421;28;20088;-63
2022/06/29 12:49:01;;;;;;;16.73;2.35;;;;;;;;;;5021908;28;20033;-67
2022/06/29 12:51:28;;;;;;;12.23;2.42;;;;;;;;;;5010669;28;20038;-64
2022/06/29 12:53:55;;;;;;;12.27;1.73;;;;;;;;;;5010503;28;20118;-65
2022/06/29 12:56:22;;;;;;;11.63;1.80;;;;;;;;;;4991773;28;20037;-63
2022/06/29 12:58:49;;;;;;;10.77;2.42;;;;;;;;;;5010534;28;20037;-63
2022/06/29 13:01:16;;;;;;;6.00;1.73;;;;;;;;;;5010177;28;20578;-61
2022/06/29 13:03:45;;;;;;;15.05;2.88;;;;;;;;;;5010412;28;20112;-63
2022/06/29 13:06:12;;;;;;;21.20;3.20;;;;;;;;;;5009952;28;20026;-62
2022/06/29 13:08:39;;;;;;;20.52;2.55;;;;;;;;;;5010303;28;20133;-63
2022/06/29 13:11:06;;;;;;;14.75;1.92;;;;;;;;;;5009833;28;20538;-63
2022/06/29 13:13:33;;;;;;;10.70;2.30;;;;;;;;;;5010897;28;20121;-63
2022/06/29 13:16:00;;;;;;;15.77;2.60;;;;;;;;;;5010377;28;20025;-63
2022/06/29 13:18:27;;;;;;;28.17;3.50;;;;;;;;;;5009583;28;20079;-65
2022/06/29 13:20:54;;;;;;;15.02;3.10;;;;;;;;;;5009484;28;20502;-65
2022/06/29 13:23:21;;;;;;;21.65;3.50;;;;;;;;;;5010565;28;20490;-65
2022/06/29 13:25:48;;;;;;;42.28;4.15;;;;;;;;;;5016593;28;20403;-68
2022/06/29 13:28:15;;;;;;;19.50;2.58;;;;;;;;;;5023055;28;20033;-65
2022/06/29 13:30:42;;;;;;;12.02;2.17;;;;;;;;;;5026160;28;20030;-65
2022/06/29 13:33:09;;;;;;;12.10;2.30;;;;;;;;;;5023506;28;20111;-66
2022/06/29 13:35:37;;;;;;;11.20;1.95;;;;;;;;;;5028973;28;20084;-65
2022/06/29 13:38:05;;;;;;;6.00;1.80;;;;;;;;;;5028875;28;20030;-65
2022/06/29 13:40:32;;;;;;;12.93;2.05;;;;;;;;;;5029687;28;20060;-64
2022/06/29 13:42:59;;;;;;;12.57;2.55;;;;;;;;;;5028988;28;20038;-69
2022/06/29 13:45:26;;;;;;;18.73;2.38;;;;;;;;;;5029171;28;20124;-64
2022/06/29 13:47:53;;;;;;;22.63;2.72;;;;;;;;;;5029532;28;20033;-67
2022/06/29 13:50:20;;;;;;;20.30;2.38;;;;;;;;;;5029683;28;20060;-69
2022/06/29 13:52:47;;;;;;;22.20;2.47;;;;;;;;;;5030127;28;20091;-68
2022/06/29 13:55:14;;;;;;;25.05;2.92;;;;;;;;;;5029681;28;20029;-68
2022/06/29 13:57:43;;;;;;;19.35;2.30;;;;;;;;;;5030764;28;20104;-64
2022/06/29 14:00:11;;;;;;;17.40;2.80;;;;;;;;;;5028121;28;20063;-64
2022/06/29 14:02:39;;;;;;;18.42;2.60;;;;;;;;;;5033281;28;20037;-64
2022/06/29 14:05:07;;;;;;;12.45;2.05;;;;;;;;;;5031855;28;20079;-64
2022/06/29 14:07:34;;;;;;;19.35;2.45;;;;;;;;;;5034263;28;20661;-64
2022/06/29 14:10:02;;;;;;;19.70;2.30;;;;;;;;;;5037618;28;20033;-63
2022/06/29 14:12:29;;;;;;;16.33;2.28;;;;;;;;;;5040513;28;20496;-62
2022/06/29 14:14:56;;;;;;;18.70;2.03;;;;;;;;;;5045697;28;20450;-63
2022/06/29 14:17:24;;;;;;;34.80;3.55;;;;;;;;;;5038567;28;20406;-65
2022/06/29 14:19:51;;;;;;;18.35;2.10;;;;;;;;;;5042572;28;20079;-65
2022/06/29 14:22:18;;;;;;;16.67;1.98;;;;;;;;;;5034869;28;20037;-66
2022/06/29 14:24:45;;;;;;;11.43;2.20;;;;;;;;;;5040643;28;20079;-65
2022/06/29 14:27:13;;;;;;;9.82;2.30;;;;;;;;;;5045747;28;20032;-65
2022/06/29 14:29:40;;;;;;;10.10;1.65;;;;;;;;;;5044986;28;20557;-65
2022/06/29 14:32:08;;;;;;;16.42;2.63;;;;;;;;;;5044360;28;20025;-65
2022/06/29 14:34:35;;;;;;;12.88;1.85;;;;;;;;;;5045294;28;20053;-64
2022/06/29 14:37:03;;;;;;;15.40;2.03;;;;;;;;;;5040651;28;20413;-65
2022/06/29 14:39:30;;;;;;;14.13;2.13;;;;;;;;;;5026205;28;20049;-66
2022/06/29 14:41:57;;;;;;;15.07;2.35;;;;;;;;;;5030684;28;20120;-66
2022/06/29 14:44:24;;;;;;;20.52;2.47;;;;;;;;;;5029270;28;20403;-67
2022/06/29 14:46:52;;;;;;;15.07;2.60;;;;;;;;;;5032516;28;20064;-67
2022/06/29 14:49:19;;;;;;;19.00;2.80;;;;;;;;;;5030608;28;20026;-70
2022/06/29 14:51:46;;;;;;;13.75;2.10;;;;;;;;;;5030587;28;20083;-69
2022/06/29 14:54:13;;;;;;;21.88;2.60;;;;;;;;;;5028820;28;20077;-69
2022/06/29 14:56:40;;;;;;;13.75;2.35;;;;;;;;;;5038730;28;20411;-65